Time;durP1;ratioP1;P1;durP2;ratioP2;P2;SDS_P1;SDS_P2;PMS_P1;PMS_P2;Temp;Humidity;BMP_temperature;BMP_pressure;BME280_temperature;BME280_humidity;BME280_pressure;Samples;Min_cycle;Max_cycle;Signal;HPM_P1;HPM_P2
2022/12/04 00:01:28;;;;;;;34.00;16.50;;;3.60;96.60;;;;;;5033045;28;20440;-62
2022/12/04 00:03:57;;;;;;;43.17;19.87;;;3.60;96.50;;;;;;5041422;28;20204;-63
2022/12/04 00:06:23;;;;;;;34.40;17.90;;;3.60;96.50;;;;;;5043837;28;20435;-62
2022/12/04 00:08:50;;;;;;;37.10;17.73;;;3.60;96.50;;;;;;5044232;28;20776;-62
2022/12/04 00:11:18;;;;;;;34.63;17.77;;;3.60;96.60;;;;;;5050037;28;20428;-63
2022/12/04 00:13:44;;;;;;;38.63;18.67;;;3.60;96.50;;;;;;5055254;28;20430;-63
2022/12/04 00:16:14;;;;;;;29.20;14.70;;;3.60;96.60;;;;;;5046220;28;20914;-63
2022/12/04 00:18:39;;;;;;;32.83;16.43;;;3.60;96.60;;;;;;5068544;28;20424;-63
2022/12/04 00:21:07;;;;;;;31.10;15.33;;;3.60;96.60;;;;;;5042406;28;20447;-63
2022/12/04 00:23:35;;;;;;;34.37;15.77;;;3.50;96.50;;;;;;5041612;28;20206;-63
2022/12/04 00:26:05;;;;;;;20.07;12.57;;;3.50;96.50;;;;;;5055289;28;20447;-63
2022/12/04 00:28:31;;;;;;;30.70;14.77;;;3.60;96.60;;;;;;5048880;28;21095;-63
2022/12/04 00:30:57;;;;;;;37.40;17.70;;;3.50;96.50;;;;;;5036537;28;20443;-63
2022/12/04 00:33:23;;;;;;;36.37;17.23;;;3.60;96.60;;;;;;5051946;28;20423;-63
2022/12/04 00:35:57;;;;;;;24.73;13.63;;;3.60;96.60;;;;;;5029793;28;20895;-63
2022/12/04 00:38:22;;;;;;;34.33;15.57;;;3.60;96.60;;;;;;5052986;28;20190;-63
2022/12/04 00:40:50;;;;;;;29.97;15.40;;;3.60;96.60;;;;;;5016448;28;20915;-63
2022/12/04 00:43:16;;;;;;;33.03;13.77;;;3.60;96.50;;;;;;5038093;28;20206;-63
2022/12/04 00:45:41;;;;;;;32.50;15.73;;;3.60;96.60;;;;;;5033939;28;20444;-63
2022/12/04 00:48:07;;;;;;;31.73;13.73;;;3.60;96.60;;;;;;5021462;28;20186;-63
2022/12/04 00:50:33;;;;;;;32.10;16.00;;;3.60;96.60;;;;;;5036770;28;20232;-63
2022/12/04 00:52:59;;;;;;;27.90;13.93;;;3.60;96.50;;;;;;5033379;28;20470;-63
2022/12/04 00:55:24;;;;;;;36.80;14.50;;;3.60;96.60;;;;;;5013696;28;20216;-63
2022/12/04 00:57:50;;;;;;;32.63;15.87;;;3.60;96.50;;;;;;5036878;28;20261;-62
2022/12/04 01:00:17;;;;;;;29.93;14.17;;;3.60;96.50;;;;;;5016550;28;20273;-62
2022/12/04 01:02:43;;;;;;;33.20;13.90;;;3.60;96.60;;;;;;5031633;28;20193;-62
2022/12/04 01:05:09;;;;;;;25.73;13.07;;;3.60;96.60;;;;;;5044405;28;20420;-63
2022/12/04 01:07:35;;;;;;;27.93;12.60;;;3.60;96.60;;;;;;5010466;28;20427;-63
2022/12/04 01:10:02;;;;;;;24.70;12.33;;;3.60;96.60;;;;;;5028784;28;20420;-63
2022/12/04 01:12:27;;;;;;;34.40;15.10;;;3.60;96.60;;;;;;5052629;28;20457;-63
2022/12/04 01:14:53;;;;;;;27.83;13.77;;;3.60;96.60;;;;;;5039306;28;20451;-63
2022/12/04 01:17:19;;;;;;;34.53;15.67;;;3.50;96.50;;;;;;5043005;28;20197;-63
2022/12/04 01:19:44;;;;;;;36.87;16.20;;;3.60;96.60;;;;;;5013106;28;20178;-63
2022/12/04 01:22:10;;;;;;;30.63;13.73;;;3.60;96.60;;;;;;5049964;28;20206;-63
2022/12/04 01:24:36;;;;;;;39.23;15.10;;;3.60;96.50;;;;;;5039208;28;20287;-63
2022/12/04 01:27:01;;;;;;;30.23;12.97;;;3.50;96.50;;;;;;5015214;28;20285;-63
2022/12/04 01:29:27;;;;;;;33.77;13.80;;;3.60;96.60;;;;;;5027660;28;20237;-63
2022/12/04 01:31:53;;;;;;;29.60;15.80;;;3.60;96.60;;;;;;5030725;28;20197;-62
2022/12/04 01:34:18;;;;;;;30.17;14.23;;;3.50;96.60;;;;;;5054302;28;20193;-62
2022/12/04 01:36:45;;;;;;;31.83;14.23;;;3.50;96.60;;;;;;5028367;28;20586;-63
2022/12/04 01:39:11;;;;;;;28.70;14.10;;;3.50;96.60;;;;;;5034901;28;20221;-63
2022/12/04 01:41:36;;;;;;;36.53;14.80;;;3.50;96.60;;;;;;5021531;28;20448;-62
2022/12/04 01:44:13;;;;;;;35.03;15.63;;;3.50;96.60;;;;;;5059824;28;20901;-62
2022/12/04 01:46:40;;;;;;;25.23;12.53;;;3.50;96.60;;;;;;5072679;28;20226;-62
2022/12/04 01:49:14;;;;;;;28.87;13.40;;;3.60;96.60;;;;;;5045430;28;20447;-63
2022/12/04 01:51:44;;;;;;;32.83;14.90;;;3.60;96.60;;;;;;5065373;28;20484;-63
2022/12/04 01:54:17;;;;;;;34.90;16.20;;;3.60;96.60;;;;;;5051960;28;20455;-63
2022/12/04 01:56:53;;;;;;;35.20;15.93;;;3.60;96.60;;;;;;5047337;28;20436;-62
2022/12/04 01:59:23;;;;;;;35.70;16.90;;;3.50;96.60;;;;;;5072894;28;20416;-62
2022/12/04 02:01:56;;;;;;;27.93;14.50;;;3.50;96.60;;;;;;5050844;28;20550;-62
2022/12/04 02:04:22;;;;;;;32.07;13.87;;;3.50;96.60;;;;;;5053788;28;20467;-62
2022/12/04 02:06:47;;;;;;;37.43;15.70;;;3.50;96.60;;;;;;5029737;28;20477;-62
2022/12/04 02:09:13;;;;;;;31.90;15.23;;;3.50;96.60;;;;;;5025037;28;20186;-62
2022/12/04 02:11:50;;;;;;;27.90;14.60;;;3.60;96.60;;;;;;5028216;28;20178;-62
2022/12/04 02:14:43;;;;;;;29.67;14.83;;;3.60;96.60;;;;;;5040295;28;20189;-63
2022/12/04 02:17:11;;;;;;;29.47;15.33;;;3.60;96.60;;;;;;5068998;28;20443;-63
2022/12/04 02:19:47;;;;;;;36.33;15.80;;;3.60;96.60;;;;;;5059533;28;20427;-63
2022/12/04 02:22:41;;;;;;;35.43;15.90;;;3.60;96.60;;;;;;5069282;28;20474;-63
2022/12/04 02:25:33;;;;;;;35.67;15.33;;;3.50;96.60;;;;;;5057853;28;20418;-63
2022/12/04 02:28:03;;;;;;;33.93;14.53;;;3.60;96.60;;;;;;5058569;28;20413;-63
2022/12/04 02:30:30;;;;;;;31.03;14.67;;;3.60;96.60;;;;;;5041065;28;20456;-63
2022/12/04 02:33:04;;;;;;;28.03;13.13;;;3.60;96.60;;;;;;5044358;28;21232;-63
2022/12/04 02:35:43;;;;;;;32.30;14.53;;;3.60;96.60;;;;;;5056321;28;20421;-63
2022/12/04 02:38:17;;;;;;;25.13;12.47;;;3.60;96.60;;;;;;5057602;28;20467;-62
2022/12/04 02:41:10;;;;;;;30.23;14.80;;;3.60;96.60;;;;;;5059909;28;20433;-62
2022/12/04 02:44:00;;;;;;;26.07;13.00;;;3.60;96.60;;;;;;5056038;28;20493;-62
2022/12/04 02:46:37;;;;;;;23.00;12.13;;;3.60;96.60;;;;;;5057905;28;20424;-63
2022/12/04 02:49:08;;;;;;;27.43;14.47;;;3.60;96.60;;;;;;5055203;28;20469;-63
2022/12/04 02:51:36;;;;;;;28.33;15.23;;;3.60;96.60;;;;;;5057761;28;20594;-63
2022/12/04 02:54:10;;;;;;;27.33;13.97;;;3.60;96.60;;;;;;5030190;28;20452;-63
2022/12/04 02:56:41;;;;;;;23.17;12.43;;;3.60;96.60;;;;;;5030053;28;20486;-62
2022/12/04 02:59:13;;;;;;;27.20;15.27;;;3.50;96.60;;;;;;5038806;28;20563;-62
2022/12/04 03:01:44;;;;;;;18.10;11.27;;;3.60;96.60;;;;;;5028091;28;20515;-62
2022/12/04 03:04:21;;;;;;;28.40;14.03;;;3.60;96.60;;;;;;5030626;28;20528;-63
2022/12/04 03:06:51;;;;;;;23.77;13.63;;;3.60;96.60;;;;;;5037546;28;20578;-63
2022/12/04 03:09:23;;;;;;;29.37;13.93;;;3.50;96.60;;;;;;5023437;28;20425;-63
2022/12/04 03:11:56;;;;;;;29.83;14.17;;;3.60;96.60;;;;;;5024647;28;20532;-62
2022/12/04 03:14:32;;;;;;;22.50;14.10;;;3.50;96.60;;;;;;5033213;28;20441;-63
2022/12/04 03:17:14;;;;;;;28.87;15.60;;;3.50;96.60;;;;;;5036326;28;20452;-63
2022/12/04 03:19:46;;;;;;;27.63;13.80;;;3.50;96.60;;;;;;5045718;28;20422;-62
2022/12/04 03:22:17;;;;;;;24.73;13.57;;;3.50;96.60;;;;;;5034382;28;20506;-62
2022/12/04 03:24:48;;;;;;;23.73;12.37;;;3.60;96.60;;;;;;5025447;28;20461;-62
2022/12/04 03:27:20;;;;;;;25.17;13.50;;;3.60;96.60;;;;;;5031930;28;20430;-63
2022/12/04 03:29:52;;;;;;;20.90;12.80;;;3.60;96.70;;;;;;5030619;28;20425;-63
2022/12/04 03:32:26;;;;;;;28.47;15.63;;;3.60;96.70;;;;;;5030345;28;20579;-63
2022/12/04 03:35:23;;;;;;;29.97;14.50;;;3.60;96.60;;;;;;5029681;28;20417;-63
2022/12/04 03:38:08;;;;;;;18.23;12.17;;;3.60;96.70;;;;;;4999875;28;20433;-64
2022/12/04 03:40:48;;;;;;;14.67;10.77;;;3.60;96.60;;;;;;5044115;28;20413;-63
2022/12/04 03:43:25;;;;;;;21.87;12.90;;;3.60;96.60;;;;;;5025071;28;20456;-61
2022/12/04 03:45:58;;;;;;;22.77;13.60;;;3.50;96.70;;;;;;5029608;28;20434;-62
2022/12/04 03:48:49;;;;;;;21.47;13.10;;;3.60;96.70;;;;;;5028662;28;20425;-62
2022/12/04 03:51:28;;;;;;;18.57;12.23;;;3.60;96.70;;;;;;5039561;28;20464;-63
2022/12/04 03:54:04;;;;;;;25.10;12.63;;;3.60;96.70;;;;;;5054201;28;20448;-63
2022/12/04 03:56:37;;;;;;;24.67;13.37;;;3.60;96.70;;;;;;5054060;28;20424;-63
2022/12/04 03:59:14;;;;;;;26.27;14.00;;;3.60;96.70;;;;;;5038063;28;20432;-63
2022/12/04 04:01:45;;;;;;;24.23;12.40;;;3.50;96.60;;;;;;5050029;28;20445;-63
2022/12/04 04:04:17;;;;;;;21.60;12.50;;;3.50;96.70;;;;;;5039465;28;20420;-63
2022/12/04 04:06:49;;;;;;;20.67;11.13;;;3.60;96.70;;;;;;5051543;28;20429;-63
2022/12/04 04:09:20;;;;;;;23.90;12.97;;;3.60;96.60;;;;;;5055052;28;20410;-63
2022/12/04 04:12:05;;;;;;;28.00;12.83;;;3.60;96.70;;;;;;5047218;28;20966;-62
2022/12/04 04:25:58;;;;;;;23.97;13.17;;;3.60;96.70;;;;;;5068265;28;20822;-63
2022/12/04 04:28:28;;;;;;;24.17;14.63;;;3.50;96.70;;;;;;5037210;28;20454;-63
2022/12/04 04:31:00;;;;;;;25.37;12.80;;;3.60;96.70;;;;;;5040452;28;20443;-62
2022/12/04 04:33:27;;;;;;;19.47;12.37;;;3.60;96.70;;;;;;5053499;28;20427;-62
2022/12/04 04:36:02;;;;;;;20.67;12.80;;;3.60;96.70;;;;;;5047868;28;20483;-62
2022/12/04 04:38:35;;;;;;;22.93;13.47;;;3.60;96.70;;;;;;5062700;28;20751;-63
2022/12/04 04:41:25;;;;;;;23.47;13.93;;;3.60;96.60;;;;;;5045553;28;20824;-63
2022/12/04 04:43:58;;;;;;;23.10;12.93;;;3.60;96.70;;;;;;5050472;28;20463;-63
2022/12/04 04:46:40;;;;;;;16.47;10.60;;;3.60;96.60;;;;;;5053254;28;20428;-63
2022/12/04 04:49:09;;;;;;;22.40;12.50;;;3.60;96.60;;;;;;5056024;28;20432;-62
2022/12/04 04:51:36;;;;;;;21.67;11.50;;;3.60;96.70;;;;;;5052397;28;20484;-62
2022/12/04 04:54:06;;;;;;;22.43;11.93;;;3.60;96.60;;;;;;5029814;28;20432;-62
2022/12/04 04:56:42;;;;;;;21.27;13.13;;;3.70;96.70;;;;;;5036876;28;20417;-62
2022/12/04 04:59:08;;;;;;;28.90;14.40;;;3.70;96.70;;;;;;5033284;28;20429;-63
2022/12/04 05:01:35;;;;;;;29.20;13.77;;;3.70;96.70;;;;;;5041016;28;20418;-63
2022/12/04 05:04:05;;;;;;;22.60;11.20;;;3.60;96.70;;;;;;5017447;28;20187;-63
2022/12/04 05:06:31;;;;;;;20.30;12.53;;;3.60;96.70;;;;;;5045398;28;20436;-63
2022/12/04 05:08:56;;;;;;;23.53;12.23;;;3.70;96.70;;;;;;5049298;28;20421;-64
2022/12/04 05:11:22;;;;;;;24.17;13.67;;;3.60;96.70;;;;;;5014710;28;20255;-63
2022/12/04 05:13:48;;;;;;;22.47;12.07;;;3.60;96.70;;;;;;5026515;28;20198;-63
2022/12/04 05:16:14;;;;;;;22.50;13.07;;;3.60;96.70;;;;;;5017987;28;20188;-62
2022/12/04 05:19:52;;;;;;;20.00;11.97;;;3.60;96.70;;;;;;5041605;28;20307;-63
2022/12/04 05:21:26;;;;;;;22.20;12.37;;;3.70;96.70;;;;;;5047043;28;20444;-63
2022/12/04 05:23:52;;;;;;;22.70;13.90;;;3.70;96.70;;;;;;5005659;28;20473;-63
2022/12/04 05:26:18;;;;;;;22.77;12.37;;;3.70;96.70;;;;;;5019201;28;20183;-63
2022/12/04 05:28:43;;;;;;;19.03;11.60;;;3.70;96.70;;;;;;5034584;28;20187;-63
2022/12/04 05:31:09;;;;;;;30.23;13.97;;;3.70;96.70;;;;;;5009798;28;20183;-64
2022/12/04 05:33:35;;;;;;;19.93;11.73;;;3.70;96.70;;;;;;5022186;28;20185;-63
2022/12/04 05:36:04;;;;;;;26.63;14.60;;;3.70;96.70;;;;;;5014810;28;20191;-63
2022/12/04 05:38:30;;;;;;;22.73;13.00;;;3.70;96.70;;;;;;5037392;28;20195;-63
2022/12/04 05:41:02;;;;;;;26.03;14.67;;;3.80;96.70;;;;;;5047237;28;20429;-64
2022/12/04 05:43:28;;;;;;;22.40;13.40;;;3.80;96.70;;;;;;5044914;28;20513;-64
2022/12/04 05:45:54;;;;;;;22.53;13.90;;;3.70;96.70;;;;;;5034689;28;20424;-63
2022/12/04 05:48:19;;;;;;;22.03;13.27;;;3.70;96.70;;;;;;5035555;28;20186;-63
2022/12/04 05:50:45;;;;;;;23.57;13.33;;;3.80;96.70;;;;;;5030288;28;20245;-64
2022/12/04 05:53:11;;;;;;;23.67;14.37;;;3.80;96.70;;;;;;5030307;28;20279;-64
2022/12/04 05:55:37;;;;;;;21.47;13.13;;;3.80;96.70;;;;;;5033946;28;20231;-64
2022/12/04 05:58:03;;;;;;;20.23;12.37;;;3.80;96.70;;;;;;5036116;28;20194;-64
2022/12/04 06:00:28;;;;;;;27.70;14.63;;;3.80;96.70;;;;;;5068649;28;20178;-64
2022/12/04 06:02:54;;;;;;;21.47;12.33;;;3.80;96.70;;;;;;5034240;28;20474;-63
2022/12/04 06:05:20;;;;;;;23.90;14.03;;;3.80;96.70;;;;;;5003356;28;20193;-64
2022/12/04 06:07:45;;;;;;;19.47;12.20;;;3.80;96.70;;;;;;5011907;28;20185;-64
2022/12/04 06:10:11;;;;;;;19.80;12.80;;;3.80;96.70;;;;;;5049572;28;20189;-64
2022/12/04 06:12:37;;;;;;;30.37;15.20;;;3.80;96.70;;;;;;5031982;28;20198;-64
2022/12/04 06:15:03;;;;;;;24.47;14.40;;;3.80;96.70;;;;;;5001592;28;20195;-64
2022/12/04 06:17:29;;;;;;;25.23;13.90;;;3.80;96.80;;;;;;5022764;28;20179;-64
2022/12/04 06:19:54;;;;;;;22.87;13.70;;;3.80;96.80;;;;;;5006583;28;20433;-63
2022/12/04 06:22:20;;;;;;;22.27;13.27;;;3.70;96.80;;;;;;5045270;28;20343;-63
2022/12/04 06:24:46;;;;;;;25.13;14.73;;;3.80;96.70;;;;;;5041738;28;20211;-64
2022/12/04 06:27:12;;;;;;;24.77;15.33;;;3.80;96.80;;;;;;5038701;28;20194;-62
2022/12/04 06:29:38;;;;;;;24.77;14.00;;;3.80;96.80;;;;;;5049290;28;20231;-63
2022/12/04 06:32:04;;;;;;;22.53;13.57;;;3.80;96.80;;;;;;5033956;28;20218;-64
2022/12/04 06:34:30;;;;;;;28.33;14.70;;;3.80;96.80;;;;;;5041490;28;20198;-64
2022/12/04 06:36:55;;;;;;;24.17;14.50;;;3.80;96.70;;;;;;5046737;28;20441;-64
2022/12/04 06:39:21;;;;;;;27.57;13.70;;;3.80;96.80;;;;;;5050683;28;20198;-64
2022/12/04 06:41:47;;;;;;;25.10;14.07;;;3.90;96.70;;;;;;5041032;28;20195;-64
2022/12/04 06:44:13;;;;;;;24.47;13.87;;;3.90;96.70;;;;;;5032448;28;20183;-64
2022/12/04 06:46:39;;;;;;;26.50;14.57;;;3.90;96.70;;;;;;5028848;28;20190;-65
2022/12/04 06:49:05;;;;;;;26.27;15.03;;;3.90;96.70;;;;;;5043596;28;20424;-66
2022/12/04 06:51:34;;;;;;;31.17;15.90;;;3.90;96.70;;;;;;5036066;28;20241;-65
2022/12/04 06:54:00;;;;;;;26.50;15.03;;;3.90;96.70;;;;;;5054148;28;20186;-66
2022/12/04 06:56:28;;;;;;;24.43;14.03;;;3.80;96.70;;;;;;5027490;28;20447;-65
2022/12/04 06:58:56;;;;;;;27.67;15.33;;;3.90;96.70;;;;;;5038509;28;20430;-65
2022/12/04 07:01:25;;;;;;;24.87;13.70;;;3.90;96.70;;;;;;5054810;28;20419;-65
2022/12/04 07:03:51;;;;;;;26.80;14.23;;;3.90;96.70;;;;;;5035318;28;20465;-65
2022/12/04 07:06:23;;;;;;;22.47;13.73;;;3.90;96.70;;;;;;5042578;28;21357;-66
2022/12/04 07:08:56;;;;;;;24.47;14.63;;;3.90;96.70;;;;;;5038543;28;20793;-66
2022/12/04 07:11:22;;;;;;;27.20;14.80;;;3.90;96.70;;;;;;5045103;28;20436;-66
2022/12/04 07:13:48;;;;;;;21.93;13.53;;;3.90;96.70;;;;;;5013595;28;20515;-66
2022/12/04 07:16:16;;;;;;;23.83;13.97;;;4.00;96.70;;;;;;5049492;28;20193;-66
2022/12/04 07:18:42;;;;;;;18.93;12.53;;;4.00;96.80;;;;;;5037425;28;20443;-65
2022/12/04 07:21:10;;;;;;;26.23;14.63;;;4.00;96.80;;;;;;5031428;28;20426;-65
2022/12/04 07:23:36;;;;;;;21.90;14.10;;;4.00;96.70;;;;;;5051601;28;20213;-66
2022/12/04 07:26:07;;;;;;;23.77;14.53;;;4.00;96.80;;;;;;5041907;28;20432;-66
2022/12/04 07:28:34;;;;;;;22.00;15.03;;;4.00;96.70;;;;;;5026122;28;20285;-66
2022/12/04 07:31:04;;;;;;;19.93;12.50;;;4.00;96.70;;;;;;5045947;28;20420;-66
2022/12/04 07:33:29;;;;;;;22.40;14.60;;;4.00;96.70;;;;;;5053496;28;20433;-66
2022/12/04 07:35:57;;;;;;;27.83;14.77;;;4.10;96.70;;;;;;5025820;28;20512;-66
2022/12/04 07:38:23;;;;;;;26.53;16.83;;;4.00;96.70;;;;;;5038622;28;20193;-66
2022/12/04 07:40:49;;;;;;;27.27;15.10;;;4.00;96.70;;;;;;5044295;28;20796;-65
2022/12/04 07:43:15;;;;;;;25.07;15.60;;;4.00;96.70;;;;;;5052551;28;20456;-66
2022/12/04 07:45:40;;;;;;;25.50;15.87;;;4.00;96.80;;;;;;5012444;28;20794;-66
2022/12/04 07:48:06;;;;;;;29.77;16.83;;;4.10;96.70;;;;;;5035871;28;20193;-66
2022/12/04 07:50:32;;;;;;;30.50;16.00;;;4.10;96.70;;;;;;5041777;28;20182;-66
2022/12/04 07:52:57;;;;;;;32.40;17.17;;;4.10;96.70;;;;;;5030044;28;20237;-66
2022/12/04 07:55:23;;;;;;;28.60;17.03;;;4.10;96.70;;;;;;5004415;28;20204;-66
2022/12/04 07:57:50;;;;;;;25.67;16.33;;;4.10;96.80;;;;;;5048003;28;20224;-66
2022/12/04 08:00:16;;;;;;;23.47;14.97;;;4.10;96.80;;;;;;5028640;28;20198;-65
2022/12/04 08:02:42;;;;;;;22.00;14.77;;;4.10;96.80;;;;;;5029810;28;20479;-63
2022/12/04 08:05:08;;;;;;;30.77;17.03;;;4.10;96.70;;;;;;5043783;28;20441;-65
2022/12/04 08:07:33;;;;;;;28.33;15.80;;;4.20;96.80;;;;;;5028746;28;20191;-64
2022/12/04 08:09:59;;;;;;;25.20;15.60;;;4.20;96.80;;;;;;5030246;28;20251;-64
2022/12/04 08:12:24;;;;;;;29.00;18.40;;;4.20;96.80;;;;;;5021336;28;20204;-66
2022/12/04 08:14:50;;;;;;;32.90;17.87;;;4.30;96.80;;;;;;5031954;28;20212;-64
2022/12/04 08:17:16;;;;;;;28.30;17.30;;;4.20;96.80;;;;;;5024126;28;20194;-64
2022/12/04 08:19:41;;;;;;;25.63;15.47;;;4.30;96.80;;;;;;5025293;28;20325;-64
2022/12/04 08:22:07;;;;;;;27.47;17.70;;;4.30;96.70;;;;;;5027571;28;20212;-64
2022/12/04 08:24:33;;;;;;;30.83;18.87;;;4.30;96.80;;;;;;5035477;28;20273;-62
2022/12/04 08:26:58;;;;;;;27.70;17.13;;;4.30;96.80;;;;;;5031624;28;20283;-64
2022/12/04 08:29:24;;;;;;;28.67;16.67;;;4.30;96.80;;;;;;5025813;28;20664;-64
2022/12/04 08:31:50;;;;;;;27.93;16.20;;;4.30;96.80;;;;;;5024905;28;20256;-65
2022/12/04 08:34:15;;;;;;;24.87;14.73;;;4.30;96.80;;;;;;5031430;28;20190;-64
2022/12/04 08:36:41;;;;;;;26.70;15.63;;;4.30;96.70;;;;;;5029128;28;20221;-64
2022/12/04 08:39:08;;;;;;;22.77;15.63;;;4.40;96.80;;;;;;5032226;28;20201;-64
2022/12/04 08:41:34;;;;;;;23.87;15.07;;;4.40;96.80;;;;;;5015358;28;20183;-65
2022/12/04 08:43:59;;;;;;;24.57;16.97;;;4.40;96.70;;;;;;5040221;28;20472;-65
2022/12/04 08:46:26;;;;;;;28.57;18.07;;;4.40;96.80;;;;;;5035401;28;20183;-65
2022/12/04 08:48:53;;;;;;;26.37;16.37;;;4.40;96.80;;;;;;5012327;28;20257;-65
2022/12/04 08:51:21;;;;;;;27.07;16.20;;;4.40;96.80;;;;;;5031893;28;20466;-65
2022/12/04 08:53:51;;;;;;;32.43;17.83;;;4.50;96.80;;;;;;5033190;28;20425;-65
2022/12/04 08:56:17;;;;;;;30.00;17.83;;;4.50;96.80;;;;;;5031241;28;20908;-65
2022/12/04 08:58:43;;;;;;;28.73;17.47;;;4.60;96.80;;;;;;5016835;28;20511;-65
2022/12/04 09:01:11;;;;;;;26.50;17.10;;;4.50;96.80;;;;;;5007657;28;20192;-64
2022/12/04 09:03:38;;;;;;;27.67;18.07;;;4.60;96.80;;;;;;5050827;28;20303;-65
2022/12/04 09:06:06;;;;;;;31.00;18.03;;;4.60;96.80;;;;;;5046355;28;20436;-64
2022/12/04 09:08:33;;;;;;;25.77;14.80;;;4.70;96.80;;;;;;5037649;28;20857;-64
2022/12/04 09:11:11;;;;;;;28.93;16.00;;;4.60;96.80;;;;;;5034703;28;20428;-64
2022/12/04 09:13:38;;;;;;;30.20;17.57;;;4.70;96.80;;;;;;5036398;28;20432;-65
2022/12/04 09:16:25;;;;;;;30.13;16.97;;;4.70;96.80;;;;;;5014666;28;20438;-64
2022/12/04 09:18:51;;;;;;;27.47;16.60;;;4.70;96.80;;;;;;5048242;28;20425;-64
2022/12/04 09:21:20;;;;;;;29.40;18.20;;;4.70;96.80;;;;;;5016491;28;20476;-64
2022/12/04 09:23:47;;;;;;;28.53;15.03;;;4.70;96.80;;;;;;5041184;28;20498;-64
2022/12/04 09:26:25;;;;;;;29.13;17.43;;;4.70;96.80;;;;;;5050353;28;21006;-64
2022/12/04 09:28:52;;;;;;;27.73;17.20;;;4.70;96.80;;;;;;5039539;28;20493;-64
2022/12/04 09:31:20;;;;;;;25.80;16.00;;;4.70;96.80;;;;;;5033522;28;20429;-64
2022/12/04 09:33:46;;;;;;;26.43;16.07;;;4.70;96.80;;;;;;5027389;28;20524;-64
2022/12/04 09:36:15;;;;;;;30.97;17.60;;;4.70;96.80;;;;;;5012395;28;20526;-64
2022/12/04 09:38:45;;;;;;;27.10;16.37;;;4.70;96.80;;;;;;5042603;28;20425;-64
2022/12/04 09:41:47;;;;;;;24.73;16.23;;;4.70;96.80;;;;;;5045890;28;20545;-62
2022/12/04 09:44:31;;;;;;;25.37;17.20;;;4.80;96.80;;;;;;5061074;28;20433;-64
2022/12/04 09:47:07;;;;;;;26.60;16.73;;;4.70;96.80;;;;;;5048382;28;20920;-64
2022/12/04 09:49:39;;;;;;;29.37;18.33;;;4.60;96.60;;;;;;5041557;28;20433;-66
2022/12/04 09:52:24;;;;;;;29.67;17.53;;;4.60;96.60;;;;;;5049272;28;20579;-65
2022/12/04 09:54:52;;;;;;;23.67;15.20;;;4.70;96.60;;;;;;5051729;28;20448;-63
2022/12/04 09:57:35;;;;;;;30.83;18.80;;;4.70;96.70;;;;;;5060510;28;20420;-65
2022/12/04 10:00:04;;;;;;;34.73;19.90;;;4.80;96.60;;;;;;5056592;28;20439;-65
2022/12/04 10:02:39;;;;;;;28.70;18.70;;;4.80;96.70;;;;;;5042054;28;20465;-64
2022/12/04 10:05:15;;;;;;;28.43;17.60;;;4.60;96.40;;;;;;5043603;28;20426;-64
2022/12/04 10:08:30;;;;;;;32.00;18.67;;;4.70;96.40;;;;;;5052711;28;20489;-66
2022/12/04 10:11:16;;;;;;;32.93;18.13;;;4.70;96.40;;;;;;5054230;28;20460;-66
2022/12/04 10:14:01;;;;;;;32.20;19.57;;;4.80;96.40;;;;;;5045702;28;20435;-65
2022/12/04 10:16:55;;;;;;;40.83;20.70;;;4.80;96.40;;;;;;5057637;28;20421;-62
2022/12/04 10:19:35;;;;;;;35.60;19.27;;;4.80;96.50;;;;;;5061941;28;20413;-62
2022/12/04 10:22:14;;;;;;;40.13;21.67;;;4.80;96.40;;;;;;5060995;28;20424;-65
2022/12/04 10:24:56;;;;;;;35.87;19.27;;;4.80;96.50;;;;;;5055896;28;20898;-65
2022/12/04 10:27:40;;;;;;;37.17;19.10;;;4.80;96.50;;;;;;5042960;28;20941;-65
2022/12/04 10:30:28;;;;;;;43.60;22.57;;;4.80;96.50;;;;;;5043942;28;20935;-65
2022/12/04 10:33:10;;;;;;;38.43;20.60;;;4.80;96.40;;;;;;5043186;28;20440;-65
2022/12/04 10:35:40;;;;;;;38.30;21.80;;;4.80;96.40;;;;;;5043564;28;20417;-66
2022/12/04 10:38:19;;;;;;;32.53;20.73;;;4.80;96.40;;;;;;5053711;28;20423;-65
2022/12/04 10:40:54;;;;;;;42.30;21.37;;;4.80;96.50;;;;;;5038867;28;20443;-65
2022/12/04 10:43:38;;;;;;;36.20;18.73;;;4.80;96.50;;;;;;5050484;28;20459;-64
2022/12/04 10:46:06;;;;;;;39.57;20.50;;;4.90;96.50;;;;;;5048976;28;20426;-66
2022/12/04 10:48:37;;;;;;;32.40;19.97;;;4.90;96.50;;;;;;5042794;28;20478;-66
2022/12/04 10:51:03;;;;;;;37.53;19.80;;;4.80;96.30;;;;;;5049155;28;21182;-66
2022/12/04 10:53:32;;;;;;;36.67;20.70;;;4.80;96.30;;;;;;5025108;28;20452;-66
2022/12/04 10:56:22;;;;;;;32.23;19.57;;;4.80;96.30;;;;;;5041891;28;20187;-66
2022/12/04 10:58:58;;;;;;;34.33;20.53;;;4.80;96.30;;;;;;5034885;28;20482;-65
2022/12/04 11:01:26;;;;;;;42.50;22.30;;;4.90;96.40;;;;;;5048811;28;20436;-63
2022/12/04 11:04:00;;;;;;;43.50;21.20;;;4.80;96.40;;;;;;5065993;28;20467;-66
2022/12/04 11:06:27;;;;;;;38.27;20.47;;;4.80;96.30;;;;;;5054831;28;20452;-67
2022/12/04 11:08:54;;;;;;;38.67;20.40;;;4.80;96.30;;;;;;5013683;28;20424;-65
2022/12/04 11:11:29;;;;;;;37.33;21.23;;;4.90;96.40;;;;;;5036256;28;20946;-64
2022/12/04 11:14:19;;;;;;;38.67;20.17;;;4.90;96.40;;;;;;5038485;28;20484;-65
2022/12/04 11:17:02;;;;;;;38.53;22.73;;;4.90;96.40;;;;;;5042996;28;20455;-64
2022/12/04 11:19:31;;;;;;;38.87;22.17;;;5.00;96.40;;;;;;5045521;28;20425;-64
2022/12/04 11:22:11;;;;;;;39.27;22.63;;;4.90;96.40;;;;;;5056492;28;20497;-62
2022/12/04 11:24:39;;;;;;;45.73;22.47;;;4.90;96.40;;;;;;5055545;28;20415;-63
2022/12/04 11:27:14;;;;;;;44.00;23.40;;;4.90;96.40;;;;;;5037492;28;20436;-63
2022/12/04 11:29:43;;;;;;;46.03;22.50;;;5.00;96.40;;;;;;5058015;28;20487;-62
2022/12/04 11:32:26;;;;;;;36.03;20.97;;;4.90;96.30;;;;;;5013688;28;20532;-63
2022/12/04 11:34:56;;;;;;;45.67;23.53;;;4.90;96.40;;;;;;5055740;28;20445;-61
2022/12/04 11:37:29;;;;;;;45.03;23.00;;;4.90;96.40;;;;;;5051369;28;20428;-61
2022/12/04 11:39:55;;;;;;;40.73;22.37;;;4.90;96.40;;;;;;5043270;28;20421;-62
2022/12/04 11:42:28;;;;;;;40.53;21.37;;;4.90;96.40;;;;;;5052969;28;20985;-61
2022/12/04 11:45:00;;;;;;;45.73;23.33;;;4.90;96.40;;;;;;5038374;28;20451;-61
2022/12/04 11:47:31;;;;;;;47.63;23.33;;;5.00;96.40;;;;;;5055803;28;20522;-61
2022/12/04 11:50:32;;;;;;;45.13;23.00;;;5.00;96.40;;;;;;5052822;28;20431;-61
2022/12/04 11:53:18;;;;;;;43.70;22.13;;;5.00;96.40;;;;;;5041829;28;20481;-61
2022/12/04 11:55:46;;;;;;;46.03;22.57;;;5.00;96.40;;;;;;5057315;28;20511;-61
2022/12/04 11:58:53;;;;;;;42.27;21.63;;;5.00;96.40;;;;;;5040017;28;20487;-61
2022/12/04 12:01:40;;;;;;;55.00;25.87;;;5.00;96.40;;;;;;5046120;28;20518;-61
2022/12/04 12:04:36;;;;;;;47.17;23.93;;;5.00;96.40;;;;;;5035483;28;20465;-61
2022/12/04 12:07:23;;;;;;;49.80;24.00;;;5.00;96.40;;;;;;5038110;28;20421;-61
2022/12/04 12:10:25;;;;;;;45.33;24.70;;;5.00;96.40;;;;;;5049825;28;20508;-61
2022/12/04 12:13:28;;;;;;;39.30;23.90;;;5.00;96.50;;;;;;5033856;28;20448;-61
2022/12/04 12:16:11;;;;;;;47.77;23.87;;;5.10;96.50;;;;;;5036267;28;20425;-61
2022/12/04 12:18:44;;;;;;;44.37;24.07;;;5.10;96.50;;;;;;5052819;28;20429;-62
2022/12/04 12:21:26;;;;;;;50.30;24.80;;;5.10;96.50;;;;;;5050856;28;20433;-62
2022/12/04 12:24:23;;;;;;;49.67;25.07;;;5.00;96.50;;;;;;5034056;28;20491;-63
2022/12/04 12:27:11;;;;;;;45.43;23.83;;;5.10;96.60;;;;;;5048879;28;20435;-63
2022/12/04 12:29:57;;;;;;;42.47;22.00;;;5.10;96.60;;;;;;5045818;28;21152;-62
2022/12/04 12:32:57;;;;;;;39.53;21.73;;;5.10;96.60;;;;;;5049544;28;20432;-62
2022/12/04 12:35:26;;;;;;;41.37;21.87;;;5.10;96.60;;;;;;5021520;28;20448;-62
2022/12/04 12:38:33;;;;;;;43.20;22.80;;;5.10;96.60;;;;;;5034436;28;20434;-62
2022/12/04 12:41:13;;;;;;;42.27;22.00;;;5.10;96.50;;;;;;5034618;28;20441;-62
2022/12/04 12:43:40;;;;;;;38.17;21.13;;;5.10;96.60;;;;;;5042558;28;20470;-62
2022/12/04 12:46:38;;;;;;;37.07;20.10;;;5.10;96.60;;;;;;5034603;28;20445;-62
2022/12/04 12:49:14;;;;;;;42.13;22.27;;;5.10;96.60;;;;;;5044112;28;20433;-62
2022/12/04 12:52:11;;;;;;;30.37;18.93;;;5.10;96.60;;;;;;5050604;28;20554;-62
2022/12/04 12:54:50;;;;;;;40.30;19.53;;;5.10;96.60;;;;;;5031213;28;20426;-62
2022/12/04 12:57:28;;;;;;;33.73;20.33;;;5.10;96.60;;;;;;5045170;28;20444;-62
2022/12/04 13:00:13;;;;;;;41.47;21.97;;;5.10;96.60;;;;;;5038891;28;20441;-62
2022/12/04 13:02:46;;;;;;;35.03;19.63;;;5.10;96.60;;;;;;5047777;28;20460;-62
2022/12/04 13:05:17;;;;;;;29.43;17.97;;;5.10;96.70;;;;;;5044553;28;20430;-62
2022/12/04 13:07:54;;;;;;;25.47;16.73;;;5.10;96.70;;;;;;5045160;28;20463;-62
2022/12/04 13:10:39;;;;;;;27.97;16.97;;;5.10;96.70;;;;;;5041364;28;20433;-61
2022/12/04 13:13:19;;;;;;;35.00;19.63;;;5.10;96.70;;;;;;5045032;28;20448;-61